Saturday, July 21, 2018, 3:36 PM EDT
Back to Local

KBGR, Bangor Int'l Airport

Location: Bangor, ME, United States Lat: 44.8
Local Time: 3:36 PM EDT (19:36 GMT) Lon: -68.817
Time Zone: US/Eastern Elev: 193 ft

Show me the last for .
Show Decoded

2018-07-21 14:53 METAR KBGR 211853Z 22006KT 10SM FEW250 28/13 A3014 RMK AO2 SLP202 T02830133 =
2018-07-21 13:53 METAR KBGR 211753Z VRB04KT 10SM CLR 27/12 A3015 RMK AO2 SLP207 T02720122 10278
                 20183 58012 =
2018-07-21 12:53 METAR KBGR 211653Z 08007KT 10SM CLR 27/11 A3016 RMK AO2 SLP211 T02720111 =
2018-07-21 11:53 METAR KBGR 211553Z 00000KT 10SM CLR 26/12 A3019 RMK AO2 SLP219 T02560122 =
2018-07-21 10:53 METAR KBGR 211453Z 10003KT 10SM CLR 25/11 A3019 RMK AO2 SLP219 T02500111 56006 =
2018-07-21 09:53 METAR KBGR 211353Z 19003KT 10SM CLR 23/10 A3019 RMK AO2 SLP220 T02280100 =
2018-07-21 08:53 METAR KBGR 211253Z VRB03KT 10SM CLR 22/13 A3020 RMK AO2 SLP223 T02220133 =
2018-07-21 07:53 METAR KBGR 211153Z 00000KT 10SM CLR 18/15 A3021 RMK AO2 SLP225 7//// T01830150
                 10183 20111 51006 =
2018-07-21 06:53 METAR KBGR 211053Z 00000KT 10SM CLR 15/14 A3020 RMK AO2 SLP225 MIFG S AND NW
                 T01500139 $ =
2018-07-21 05:53 METAR KBGR 210953Z 00000KT 10SM R15/6000VP6000FT CLR 12/12 A3019 RMK AO2 SLP221
                 VIS W-NW 1 MIFG S AND W-NW T01220122 $ =
2018-07-21 04:53 METAR KBGR 210853Z 00000KT 10SM CLR 12/12 A3019 RMK AO2 SLP219 MIFG SW-NW
                 T01170117 58000 $ =
2018-07-21 03:53 METAR KBGR 210753Z 00000KT 10SM CLR 13/13 A3019 RMK AO2 SLP219 T01330133 $ =
2018-07-21 02:53 METAR KBGR 210653Z 00000KT 10SM CLR 13/13 A3019 RMK AO2 SLP221 T01330133 $ =
2018-07-21 01:53 METAR KBGR 210553Z 00000KT 10SM CLR 14/13 A3019 RMK AO2 SLPNO T01390133 10222
                 20139 55000 =
2018-07-21 00:53 METAR KBGR 210453Z 16004KT 9SM CLR 15/14 A3018 RMK AO2 SLPNO T01500144 403000122
                 =
2018-07-20 23:53 METAR KBGR 210353Z 17003KT 10SM CLR 16/15 A3018 RMK AO2 SLPNO T01610150 =
2018-07-20 22:53 METAR KBGR 210253Z 19003KT 10SM CLR 18/16 A3019 RMK AO2 SLPNO T01830156 51009 =
2018-07-20 21:53 METAR KBGR 210153Z 18005KT 10SM CLR 19/15 A3018 RMK AO2 SLPNO T01940150 =
2018-07-20 20:53 METAR KBGR 210053Z 17007KT 9SM CLR 21/13 A3018 RMK AO2 SLPNO T02060133 =
2018-07-20 19:53 METAR KBGR 202353Z 16007KT 9SM CLR 22/13 A3016 RMK AO2 SLPNO 6//// T02220128
                 10300 20222 53003 =
2018-07-20 18:53 METAR KBGR 202253Z 17008KT 10SM CLR 24/12 A3016 RMK AO2 SLPNO T02440122 =
2018-07-20 17:53 METAR KBGR 202153Z 18011KT 10SM CLR 26/11 A3015 RMK AO2 SLPNO T02610106 =
2018-07-20 16:53 METAR KBGR 202053Z 17012KT 10SM FEW070 28/13 A3015 RMK AO2 SLPNO 6//// T02780128
                 =
2018-07-20 15:56 METAR KBGR 201956Z 21008KT 10SM FEW070 29/13 A3014 RMK AO2 T02890128 $ =

Support USWX by starting your Amazon purchase here.